ADDS METAR Data INFO
IDs: Format: Raw Decoded Include TAF

Data at: 0707 UTC 19 Oct 2017

KVNY 190651Z AUTO 08003KT 10SM CLR 19/14 A2991 RMK AO2 SLP121 T01940139
KVNY 190551Z AUTO 15005KT 10SM CLR 20/13 A2991 RMK AO2 SLP120 T02000128 10289 20200 51007
KVNY 190451Z AUTO 08003KT 10SM CLR 21/13 A2991 RMK AO2 SLP118 T02110128
KVNY 190351Z 12003KT 10SM CLR 22/12 A2990 RMK AO2 SLP117 T02170122
KVNY 190251Z 10004KT 10SM CLR 22/12 A2989 RMK AO2 SLP114 T02220117 53003
KVNY 190151Z 09004KT 10SM CLR 23/11 A2988 RMK AO2 SLP113 T02330111
KVNY 190051Z 13007KT 10SM CLR 26/10 A2988 RMK AO2 SLP109 T02560100
KVNY 182351Z 11006KT 10SM CLR 29/07 A2988 RMK AO2 SLP109 T02890067 10322 20278 56008
KVNY 182251Z 13007KT 10SM CLR 31/06 A2989 RMK AO2 SLP110 T03060061
KVNY 182151Z 12007KT 10SM CLR 31/07 A2989 RMK AO2 SLP112 T03060067
KVNY 182051Z 12008KT 10SM CLR 32/08 A2990 RMK AO2 SLP116 T03170083 58019
KVNY 181951Z 14007KT 10SM FEW090 32/06 A2993 RMK AO2 SLP124 T03170056
KVNY 181851Z 19004KT 10SM CLR 31/05 A2995 RMK AO2 SLP132 T03060050
KVNY 181751Z 00000KT 10SM FEW100 27/06 A2996 RMK AO2 SLP136 T02720056 10278 20178 50004
KVNY 181651Z 00000KT 10SM FEW100 25/08 A2997 RMK AO2 SLP138 T02500078
KVNY 181551Z 00000KT 10SM CLR 22/09 A2997 RMK AO2 SLP138 T02170094
KVNY 181451Z 25004KT 10SM CLR 18/08 A2995 RMK AO2 SLP133 T01830083 53009
KVNY 181351Z 26003KT 10SM SCT200 18/09 A2994 RMK AO2 SLP128 T01780089
KVNY 181251Z 00000KT 10SM FEW200 18/09 A2993 RMK AO2 SLP126 T01830089
KVNY 181151Z AUTO 00000KT 10SM CLR 20/08 A2992 RMK AO2 SLP122 T02000078 10239 20194 56005
KVNY 181051Z 31003KT 10SM CLR 20/08 A2992 RMK AO2 SLP121 T02000078
KVNY 180951Z 00000KT 10SM CLR 21/07 A2993 RMK AO2 SLP123 T02110072
KVNY 180851Z 05003KT 10SM CLR 22/06 A2994 RMK AO2 SLP127 T02220056 53000
KVNY 180751Z 06003KT 10SM CLR 23/07 A2993 RMK AO2 SLP124 T02330067 403780167
KVNY 180651Z 00000KT 10SM CLR 23/07 A2994 RMK AO2 SLP126 T02330072
KVNY 180551Z 24003KT 10SM CLR 24/07 A2994 RMK AO2 SLP127 T02390067 10344 20239 51004
KVNY 180451Z 00000KT 10SM CLR 26/03 A2993 RMK AO2 SLP126 T02560033
KVNY 180351Z 00000KT 10SM CLR 27/02 A2993 RMK AO2 SLP126 T02720022
KVNY 180251Z 00000KT 10SM CLR 28/02 A2992 RMK AO2 SLP124 T02830017 53004
KVNY 180151Z 25003KT 10SM CLR 31/M01 A2992 RMK AO2 SLP122 T03061006
KVNY 180051Z 00000KT 10SM CLR 33/M03 A2991 RMK AO2 SLP116 T03331033
KVNY 172351Z VRB05KT 10SM CLR 34/M03 A2991 RMK AO2 SLP118 T03441033 10378 20306 56007
KVNY 172251Z 28004KT 10SM CLR 35/M03 A2991 RMK AO2 SLP119 T03501028
KVNY 172151Z 28006KT 10SM CLR 36/M05 A2992 RMK AO2 SLP121 T03561050
KVNY 172051Z 16003KT 10SM CLR 37/M06 A2993 RMK AO2 SLP124 T03671061 58031
KVNY 171951Z VRB03KT 10SM CLR 36/M11 A2996 RMK AO2 SLP136 T03561111